Time;durP1;ratioP1;P1;durP2;ratioP2;P2;SDS_P1;SDS_P2;PMS_P1;PMS_P2;Temp;Humidity;BMP_temperature;BMP_pressure;BME280_temperature;BME280_humidity;BME280_pressure;Samples;Min_cycle;Max_cycle;Signal;HPM_P1;HPM_P2
2022/09/22 00:01:05;;;;;;;17.13;9.32;;;;;;;10.51;48.78;102662.16;7390653;19;20021;-59
2022/09/22 00:03:40;;;;;;;17.67;10.07;;;;;;;10.53;48.95;102657.22;7390443;19;20476;-59
2022/09/22 00:06:14;;;;;;;20.30;9.93;;;;;;;10.50;48.80;102655.91;7394409;19;19991;-59
2022/09/22 00:08:43;;;;;;;17.92;9.43;;;;;;;10.46;48.78;102659.50;7387871;19;19991;-59
2022/09/22 00:11:12;;;;;;;17.63;9.60;;;;;;;10.42;48.70;102658.47;7390238;19;20025;-56
2022/09/22 00:13:39;;;;;;;17.73;8.88;;;;;;;10.49;48.74;102653.47;7391124;19;19998;-56
2022/09/22 00:16:08;;;;;;;17.23;9.52;;;;;;;10.47;48.47;102650.19;7398835;19;20066;-56
2022/09/22 00:18:35;;;;;;;17.02;9.02;;;;;;;10.38;48.49;102656.34;7394627;19;20001;-56
2022/09/22 00:21:11;;;;;;;18.05;9.38;;;;;;;10.43;48.55;102651.91;7397623;19;20078;-56
2022/09/22 00:23:37;;;;;;;16.70;9.40;;;;;;;10.40;48.64;102653.28;7397417;19;19999;-56
2022/09/22 00:26:08;;;;;;;16.08;9.35;;;;;;;10.08;49.00;102654.00;7398514;19;20536;-56
2022/09/22 00:28:33;;;;;;;15.70;7.95;;;;;;;9.71;50.06;102663.72;7395956;19;20015;-56
2022/09/22 00:31:06;;;;;;;16.60;7.70;;;;;;;10.03;49.23;102648.63;7397503;19;20010;-56
2022/09/22 00:33:32;;;;;;;13.85;8.20;;;;;;;10.13;49.14;102657.47;7396609;19;20006;-56
2022/09/22 00:35:59;;;;;;;14.07;7.63;;;;;;;10.06;49.33;102654.31;7396523;19;20011;-56
2022/09/22 00:38:25;;;;;;;14.50;7.00;;;;;;;10.26;48.69;102655.94;7394314;19;19999;-56
2022/09/22 00:40:50;;;;;;;14.57;7.57;;;;;;;10.28;48.64;102652.94;7393767;19;20342;-56
2022/09/22 00:43:19;;;;;;;15.07;7.30;;;;;;;10.23;48.55;102651.06;7397022;19;20510;-56
2022/09/22 00:45:53;;;;;;;12.90;6.85;;;;;;;10.18;48.40;102660.16;7397603;19;19998;-58
2022/09/22 00:48:21;;;;;;;13.75;7.43;;;;;;;10.08;48.45;102656.75;7394398;19;20003;-56
2022/09/22 00:50:49;;;;;;;10.48;6.47;;;;;;;10.11;48.50;102653.44;7396844;19;20007;-56
2022/09/22 00:53:15;;;;;;;13.15;6.93;;;;;;;9.96;48.63;102651.72;7396975;19;20461;-56
2022/09/22 00:55:59;;;;;;;14.88;8.40;;;;;;;9.96;48.39;102657.16;7396185;19;20368;-56
2022/09/22 00:58:31;;;;;;;15.93;8.82;;;;;;;9.71;48.82;102652.81;7393642;19;20018;-56
2022/09/22 01:00:58;;;;;;;14.63;8.77;;;;;;;9.45;49.55;102642.19;7396230;19;20350;-56
2022/09/22 01:03:25;;;;;;;16.52;9.15;;;;;;;9.50;49.20;102644.84;7396856;19;20076;-56
2022/09/22 01:05:55;;;;;;;16.92;9.95;;;;;;;9.38;49.40;102642.53;7399336;19;20471;-56
2022/09/22 01:08:23;;;;;;;12.65;7.75;;;;;;;9.16;49.64;102640.25;7391069;19;19995;-56
2022/09/22 01:10:49;;;;;;;10.82;6.43;;;;;;;9.08;50.43;102647.16;7395592;19;20537;-56
2022/09/22 01:13:50;;;;;;;10.00;5.55;;;;;;;9.08;50.60;102640.88;7395706;19;20058;-56
2022/09/22 01:16:44;;;;;;;9.45;5.05;;;;;;;9.11;50.62;102637.56;7397162;19;20017;-56
2022/09/22 01:19:45;;;;;;;8.73;4.70;;;;;;;9.63;49.26;102641.47;7394875;19;19998;-56
2022/09/22 01:22:20;;;;;;;10.07;5.35;;;;;;;9.78;48.73;102635.03;7394427;19;20466;-56
2022/09/22 01:25:08;;;;;;;7.88;5.00;;;;;;;9.82;48.83;102635.25;7394869;19;20446;-56
2022/09/22 01:27:55;;;;;;;9.15;5.22;;;;;;;9.87;48.49;102629.72;7391977;19;20018;-56
2022/09/22 01:30:24;;;;;;;10.63;5.63;;;;;;;9.90;48.46;102631.88;7393657;19;19999;-56
2022/09/22 01:33:19;;;;;;;13.35;5.88;;;;;;;9.79;48.51;102619.47;7395827;19;20026;-56
2022/09/22 01:35:58;;;;;;;9.10;5.22;;;;;;;9.78;48.35;102623.28;7394673;19;19994;-56
2022/09/22 01:38:55;;;;;;;10.30;5.45;;;;;;;9.74;48.47;102622.25;7391945;19;20007;-56
2022/09/22 01:41:38;;;;;;;9.45;5.25;;;;;;;9.71;48.55;102625.56;7395871;19;20457;-56
2022/09/22 01:44:11;;;;;;;9.20;4.78;;;;;;;9.84;47.83;102616.66;7394882;19;20006;-56
2022/09/22 01:46:45;;;;;;;8.70;5.30;;;;;;;9.81;48.19;102614.53;7396442;19;20480;-57
2022/09/22 01:49:14;;;;;;;9.05;5.07;;;;;;;9.70;48.10;102613.00;7394704;19;20029;-56
2022/09/22 01:51:46;;;;;;;9.57;5.22;;;;;;;9.48;48.88;102608.06;7394978;19;20312;-56
2022/09/22 01:54:26;;;;;;;9.93;4.90;;;;;;;9.53;48.30;102608.81;7395691;19;20463;-56
2022/09/22 01:57:04;;;;;;;9.55;5.28;;;;;;;8.96;49.43;102613.19;7392769;19;20002;-56
2022/09/22 01:59:33;;;;;;;10.15;5.68;;;;;;;8.70;50.29;102610.72;7393182;19;20083;-56
2022/09/22 02:02:14;;;;;;;10.50;5.13;;;;;;;9.08;49.23;102611.75;7394527;19;20002;-56
2022/09/22 02:04:52;;;;;;;8.63;5.00;;;;;;;8.88;49.69;102607.28;7395008;19;20007;-56
2022/09/22 02:07:25;;;;;;;9.68;4.97;;;;;;;9.22;49.10;102603.69;7391151;19;20009;-56
2022/09/22 02:09:50;;;;;;;8.38;4.53;;;;;;;9.38;48.64;102604.34;7394569;19;20026;-56
2022/09/22 02:12:17;;;;;;;10.98;6.00;;;;;;;9.15;48.93;102594.22;7391932;19;19999;-56
2022/09/22 02:14:46;;;;;;;16.33;8.90;;;;;;;8.89;49.67;102592.56;7393278;19;20006;-56
2022/09/22 02:17:14;;;;;;;22.60;12.20;;;;;;;8.82;49.63;102594.81;7392808;19;20006;-57
2022/09/22 02:19:40;;;;;;;24.98;13.98;;;;;;;8.69;50.25;102588.09;7391595;19;19999;-59
2022/09/22 02:22:09;;;;;;;26.23;13.90;;;;;;;8.58;50.77;102591.19;7392779;19;20633;-56
2022/09/22 02:24:40;;;;;;;29.40;15.48;;;;;;;9.07;49.62;102587.50;7393998;19;20007;-57
2022/09/22 02:27:12;;;;;;;22.45;12.65;;;;;;;9.30;48.89;102596.81;7391312;19;20351;-57
2022/09/22 02:29:41;;;;;;;20.77;12.05;;;;;;;9.02;49.34;102591.09;7393569;19;20005;-57
2022/09/22 02:32:12;;;;;;;20.85;11.05;;;;;;;9.14;49.00;102587.97;7393167;19;19998;-57
2022/09/22 02:34:38;;;;;;;21.75;11.30;;;;;;;9.30;48.64;102588.63;7393489;19;20003;-57
2022/09/22 02:37:21;;;;;;;19.42;10.60;;;;;;;9.35;48.52;102593.19;7389798;19;20029;-57
2022/09/22 02:40:12;;;;;;;18.10;9.90;;;;;;;8.96;49.60;102588.69;7365692;19;20006;-57
2022/09/22 02:42:51;;;;;;;19.70;10.63;;;;;;;8.85;49.94;102583.34;7336859;19;1004958;-57
2022/09/22 02:45:31;;;;;;;15.65;8.80;;;;;;;9.09;49.37;102579.84;7392860;19;20006;-56
2022/09/22 02:48:03;;;;;;;14.48;8.05;;;;;;;9.33;48.82;102579.84;7389062;19;20363;-58
2022/09/22 02:50:30;;;;;;;16.85;9.25;;;;;;;9.34;48.76;102575.25;7391138;19;20036;-57
2022/09/22 02:53:00;;;;;;;14.27;7.47;;;;;;;9.44;48.29;102586.03;7395695;19;20016;-57
2022/09/22 02:55:26;;;;;;;15.02;8.32;;;;;;;9.48;48.35;102580.81;7392984;19;20025;-56
2022/09/22 02:57:51;;;;;;;14.48;7.95;;;;;;;9.36;48.32;102579.28;7390484;19;20010;-57
2022/09/22 03:00:17;;;;;;;16.45;8.75;;;;;;;9.41;48.24;102572.97;7392938;19;19994;-57
2022/09/22 03:02:42;;;;;;;14.68;8.50;;;;;;;9.46;47.94;102583.81;7391437;19;20002;-57
2022/09/22 03:05:08;;;;;;;16.77;8.77;;;;;;;9.41;48.02;102573.78;7392615;19;19993;-57
2022/09/22 03:07:33;;;;;;;18.25;9.73;;;;;;;9.27;48.13;102573.66;7394357;19;20006;-58
2022/09/22 03:09:59;;;;;;;15.90;9.07;;;;;;;9.23;48.34;102572.63;7392292;19;20483;-58
2022/09/22 03:12:24;;;;;;;17.45;9.38;;;;;;;9.20;48.58;102564.19;7392838;19;20002;-57
2022/09/22 03:14:50;;;;;;;20.17;10.38;;;;;;;9.20;48.38;102570.47;7390864;19;19991;-57
2022/09/22 03:17:15;;;;;;;17.95;10.68;;;;;;;9.30;48.00;102568.72;7391288;19;20464;-58
2022/09/22 03:19:41;;;;;;;19.10;10.45;;;;;;;9.22;48.07;102568.28;7390833;19;20473;-59
2022/09/22 03:22:06;;;;;;;20.20;10.57;;;;;;;9.20;48.25;102569.66;7390263;19;19999;-58
2022/09/22 03:24:32;;;;;;;19.95;11.77;;;;;;;9.22;48.21;102567.47;7392382;19;19994;-58
2022/09/22 03:26:57;;;;;;;26.08;14.00;;;;;;;9.26;47.97;102560.31;7390290;19;19999;-58
2022/09/22 03:29:23;;;;;;;30.05;16.85;;;;;;;9.22;48.03;102553.84;7393007;19;20469;-58
2022/09/22 03:31:48;;;;;;;27.42;15.20;;;;;;;9.23;47.84;102545.38;7391449;19;20069;-59
2022/09/22 03:34:14;;;;;;;19.05;11.63;;;;;;;9.18;47.84;102545.44;7391989;19;20014;-58
2022/09/22 03:36:39;;;;;;;13.40;7.68;;;;;;;9.11;47.92;102550.41;7390492;19;19994;-59
2022/09/22 03:39:05;;;;;;;13.60;7.30;;;;;;;9.15;48.11;102559.63;7390807;19;19995;-58
2022/09/22 03:41:31;;;;;;;12.50;6.55;;;;;;;8.86;48.61;102563.16;7391900;19;20005;-59
2022/09/22 03:43:57;;;;;;;10.15;6.35;;;;;;;8.64;49.65;102551.94;7391606;19;20461;-59
2022/09/22 03:46:23;;;;;;;10.10;5.13;;;;;;;8.62;49.65;102548.69;7391351;19;20537;-58
2022/09/22 03:48:49;;;;;;;12.90;5.82;;;;;;;8.47;50.30;102550.44;7389782;19;19998;-58
2022/09/22 03:51:15;;;;;;;10.30;5.45;;;;;;;8.49;50.08;102550.97;7399376;19;20447;-58
2022/09/22 03:53:40;;;;;;;11.30;6.10;;;;;;;8.60;50.08;102550.88;7400145;19;19999;-59
2022/09/22 03:56:08;;;;;;;11.65;6.22;;;;;;;8.68;50.07;102547.53;7398342;19;19999;-58
2022/09/22 03:58:35;;;;;;;11.52;5.90;;;;;;;8.73;49.68;102555.66;7395308;19;20015;-59
2022/09/22 04:01:00;;;;;;;11.18;5.38;;;;;;;8.95;49.12;102552.50;7398327;19;20470;-58
2022/09/22 04:03:26;;;;;;;12.68;6.07;;;;;;;9.07;48.92;102543.91;7398001;19;19995;-59
2022/09/22 04:05:52;;;;;;;13.23;7.03;;;;;;;9.24;48.34;102548.91;7401194;19;20007;-59
2022/09/22 04:08:17;;;;;;;18.23;8.77;;;;;;;9.27;48.15;102548.34;7393668;19;20006;-59
2022/09/22 04:10:44;;;;;;;20.05;10.52;;;;;;;9.26;48.15;102544.78;7397814;19;20006;-59
2022/09/22 04:13:11;;;;;;;20.30;10.02;;;;;;;9.01;48.58;102539.63;7398772;19;20002;-58
2022/09/22 04:15:36;;;;;;;18.52;9.88;;;;;;;9.07;48.62;102538.47;7398812;19;20037;-58
2022/09/22 04:18:02;;;;;;;18.90;8.77;;;;;;;9.25;48.19;102539.66;7396562;19;20003;-58
2022/09/22 04:20:29;;;;;;;19.45;9.25;;;;;;;9.16;48.33;102541.38;7396104;19;20677;-58
2022/09/22 04:23:01;;;;;;;15.95;8.10;;;;;;;8.92;49.28;102539.44;7398479;19;20011;-58
2022/09/22 04:25:26;;;;;;;16.92;7.82;;;;;;;8.86;49.34;102529.69;7398067;19;20018;-58
2022/09/22 04:27:52;;;;;;;15.05;7.53;;;;;;;9.01;49.02;102526.00;7395187;19;20463;-57
2022/09/22 04:30:17;;;;;;;14.55;6.35;;;;;;;9.04;48.75;102528.16;7398173;19;20114;-57
2022/09/22 04:32:43;;;;;;;12.75;6.40;;;;;;;9.07;48.73;102524.84;7397969;19;20054;-57
2022/09/22 04:35:09;;;;;;;13.75;6.60;;;;;;;9.12;48.38;102535.69;7397088;19;19998;-57
2022/09/22 04:37:34;;;;;;;13.05;5.97;;;;;;;9.11;48.31;102528.59;7394954;19;20006;-57
2022/09/22 04:40:00;;;;;;;13.50;6.70;;;;;;;9.14;48.17;102533.50;7395834;19;19999;-57
2022/09/22 04:42:32;;;;;;;12.60;6.47;;;;;;;9.04;48.42;102530.88;7396715;19;20011;-57
2022/09/22 04:45:00;;;;;;;11.10;5.53;;;;;;;8.98;48.37;102534.75;7396966;19;20090;-57
2022/09/22 04:47:28;;;;;;;12.00;5.57;;;;;;;8.97;48.34;102528.50;7395346;19;20358;-58
2022/09/22 04:49:53;;;;;;;11.82;5.82;;;;;;;8.92;48.48;102525.03;7392491;19;20458;-59
2022/09/22 04:52:19;;;;;;;12.68;5.85;;;;;;;9.06;48.18;102525.94;7396155;19;19999;-58
2022/09/22 04:54:44;;;;;;;10.98;5.60;;;;;;;9.09;48.05;102522.66;7397523;19;20008;-58
2022/09/22 04:57:10;;;;;;;10.75;5.43;;;;;;;8.97;48.03;102516.78;7395483;19;20005;-59
2022/09/22 04:59:35;;;;;;;9.52;4.90;;;;;;;9.01;47.96;102520.56;7394721;19;20002;-59
2022/09/22 05:02:01;;;;;;;12.15;5.80;;;;;;;8.97;48.02;102525.78;7396516;19;19986;-59
2022/09/22 05:04:27;;;;;;;13.25;5.60;;;;;;;9.04;48.05;102517.25;7395319;19;20022;-59
2022/09/22 05:06:54;;;;;;;13.27;6.25;;;;;;;9.12;48.06;102524.78;7395197;19;20378;-59
2022/09/22 05:09:20;;;;;;;15.10;7.13;;;;;;;9.05;47.92;102524.34;7395109;19;19999;-59
2022/09/22 05:11:47;;;;;;;13.07;6.18;;;;;;;8.88;48.00;102520.13;7396893;19;20034;-59
2022/09/22 05:14:14;;;;;;;12.50;5.22;;;;;;;8.97;47.96;102524.97;7396315;19;20339;-59
2022/09/22 05:16:40;;;;;;;12.85;5.32;;;;;;;8.98;47.85;102524.69;7395136;19;19994;-59
2022/09/22 05:19:08;;;;;;;12.48;6.25;;;;;;;8.83;47.81;102528.38;7396574;19;19998;-59
2022/09/22 05:21:34;;;;;;;11.18;5.78;;;;;;;8.59;48.75;102532.94;7394712;19;20025;-59
2022/09/22 05:24:00;;;;;;;12.32;5.93;;;;;;;8.58;48.63;102529.41;7395829;19;20333;-59
2022/09/22 05:26:26;;;;;;;12.02;5.68;;;;;;;8.35;49.45;102539.13;7394781;19;19994;-58
2022/09/22 05:28:52;;;;;;;13.10;5.90;;;;;;;8.52;49.09;102522.38;7395380;19;20499;-59
2022/09/22 05:31:17;;;;;;;13.73;6.50;;;;;;;8.74;48.50;102523.81;7394480;19;19999;-59
2022/09/22 05:33:43;;;;;;;10.65;5.72;;;;;;;8.91;48.05;102529.63;7395251;19;19998;-59
2022/09/22 05:36:08;;;;;;;12.52;6.38;;;;;;;8.94;47.79;102530.97;7393767;19;20031;-59
2022/09/22 05:38:34;;;;;;;12.93;6.15;;;;;;;8.70;48.29;102531.75;7392756;19;19995;-58
2022/09/22 05:41:00;;;;;;;11.73;5.88;;;;;;;8.53;48.62;102530.25;7393039;19;19999;-58
2022/09/22 05:43:25;;;;;;;11.00;5.22;;;;;;;8.35;49.62;102541.84;7394103;19;20003;-58
2022/09/22 05:45:51;;;;;;;13.23;5.47;;;;;;;8.29;50.13;102542.94;7395992;19;20090;-59
2022/09/22 05:48:16;;;;;;;11.98;5.60;;;;;;;8.32;50.12;102534.22;7392282;19;20109;-59
2022/09/22 05:50:43;;;;;;;37.38;8.95;;;;;;;8.66;49.08;102538.84;7395055;19;20006;-59
2022/09/22 05:53:10;;;;;;;59.10;11.77;;;;;;;8.83;48.66;102543.88;7394162;19;19998;-59
2022/09/22 05:55:37;;;;;;;48.03;9.38;;;;;;;8.69;48.91;102541.00;7394911;19;20033;-60
2022/09/22 05:58:03;;;;;;;65.43;10.80;;;;;;;8.63;49.25;102536.69;7390506;19;20007;-60
2022/09/22 06:00:29;;;;;;;43.67;10.65;;;;;;;8.38;50.34;102541.28;7393192;19;20002;-60
2022/09/22 06:02:55;;;;;;;50.60;9.35;;;;;;;8.42;49.95;102545.03;7394351;19;20103;-60
2022/09/22 06:05:21;;;;;;;28.00;7.90;;;;;;;8.44;50.27;102548.28;7396623;19;20090;-60
2022/09/22 06:07:54;;;;;;;33.72;8.98;;;;;;;8.43;50.10;102552.13;7392968;19;20357;-59
2022/09/22 06:10:19;;;;;;;32.00;7.85;;;;;;;8.38;50.21;102545.88;7395033;19;20442;-60
2022/09/22 06:12:45;;;;;;;25.95;7.55;;;;;;;8.46;50.72;102554.25;7392706;19;20006;-59
2022/09/22 06:15:10;;;;;;;21.95;7.15;;;;;;;8.67;50.49;102549.47;7395005;19;20326;-60
2022/09/22 06:17:36;;;;;;;15.23;6.40;;;;;;;8.65;50.74;102548.13;7392573;19;20009;-60
2022/09/22 06:20:01;;;;;;;17.35;7.28;;;;;;;8.71;50.66;102544.25;7391326;19;20070;-60
2022/09/22 06:22:27;;;;;;;11.63;6.15;;;;;;;8.77;50.69;102548.56;7394425;19;20321;-60
2022/09/22 06:24:52;;;;;;;13.35;6.72;;;;;;;8.87;50.88;102548.47;7392483;19;20023;-59
2022/09/22 06:27:17;;;;;;;13.65;6.90;;;;;;;8.95;50.78;102548.94;7391142;19;20003;-60
2022/09/22 06:29:43;;;;;;;14.73;7.10;;;;;;;8.96;50.89;102547.84;7393539;19;20003;-60
2022/09/22 06:32:09;;;;;;;13.65;6.88;;;;;;;8.99;51.40;102556.25;7391253;19;20010;-59
2022/09/22 06:34:35;;;;;;;14.15;6.90;;;;;;;9.00;51.11;102547.00;7393199;19;20030;-60
2022/09/22 06:37:01;;;;;;;11.57;6.82;;;;;;;9.12;51.44;102557.47;7391984;19;20019;-59
2022/09/22 06:39:26;;;;;;;13.02;7.10;;;;;;;9.31;51.06;102548.56;7392355;19;20332;-59
2022/09/22 06:41:55;;;;;;;12.93;6.78;;;;;;;9.31;51.35;102548.56;7392893;19;20006;-59
2022/09/22 06:44:20;;;;;;;13.20;6.60;;;;;;;9.31;51.32;102548.56;7391139;19;20070;-59
2022/09/22 06:46:46;;;;;;;14.35;6.78;;;;;;;9.32;51.84;102556.44;7390044;19;20027;-59
2022/09/22 06:49:12;;;;;;;13.15;7.03;;;;;;;9.38;51.77;102549.84;7392477;19;20480;-60
2022/09/22 06:51:38;;;;;;;14.00;7.00;;;;;;;9.49;51.76;102550.53;7393556;19;20002;-60
2022/09/22 06:54:05;;;;;;;12.63;6.30;;;;;;;9.70;51.24;102545.69;7392627;19;20368;-59
2022/09/22 06:56:42;;;;;;;14.85;7.00;;;;;;;9.83;51.23;102544.13;7393285;19;20082;-60
2022/09/22 06:59:13;;;;;;;15.82;7.00;;;;;;;9.96;51.36;102539.88;7390760;19;20055;-60
2022/09/22 07:01:40;;;;;;;13.05;6.93;;;;;;;10.17;50.56;102532.19;7392782;19;20625;-59
2022/09/22 07:04:06;;;;;;;11.88;7.30;;;;;;;10.23;50.65;102539.19;7392392;19;20018;-59
2022/09/22 07:06:32;;;;;;;15.95;7.47;;;;;;;10.27;50.70;102537.50;7396220;19;19999;-59
2022/09/22 07:08:57;;;;;;;14.55;7.85;;;;;;;10.33;50.87;102540.94;7392925;19;20002;-59
2022/09/22 07:11:23;;;;;;;13.52;7.78;;;;;;;10.44;50.80;102539.69;7391050;19;19998;-59
2022/09/22 07:13:52;;;;;;;13.82;7.55;;;;;;;10.51;50.65;102531.13;7392963;19;20518;-59
2022/09/22 07:16:19;;;;;;;15.88;7.80;;;;;;;10.56;51.00;102536.47;7392181;19;20003;-59
2022/09/22 07:18:47;;;;;;;13.80;7.43;;;;;;;10.71;50.82;102536.22;7390371;19;19995;-60
2022/09/22 07:21:19;;;;;;;15.15;7.90;;;;;;;10.84;50.75;102540.13;7393003;19;20031;-59
2022/09/22 07:23:48;;;;;;;16.75;8.27;;;;;;;10.91;50.51;102540.53;7390678;19;20032;-59
2022/09/22 07:26:16;;;;;;;14.38;7.63;;;;;;;11.00;50.61;102539.84;7391584;19;19998;-59
2022/09/22 07:28:42;;;;;;;14.00;7.93;;;;;;;11.07;50.79;102532.88;7389912;19;20014;-60
2022/09/22 07:31:10;;;;;;;13.65;7.53;;;;;;;11.17;50.76;102539.25;7391698;19;20178;-59
2022/09/22 07:33:37;;;;;;;15.43;7.63;;;;;;;11.28;50.75;102543.41;7392299;19;20013;-60
2022/09/22 07:36:10;;;;;;;13.88;7.38;;;;;;;11.34;50.45;102531.25;7390277;19;20308;-59
2022/09/22 07:38:41;;;;;;;14.60;7.60;;;;;;;11.46;50.65;102528.81;7388614;19;20486;-60
2022/09/22 07:41:10;;;;;;;13.93;7.47;;;;;;;11.57;50.49;102534.06;7389733;19;20032;-60
2022/09/22 07:43:36;;;;;;;15.00;7.53;;;;;;;11.64;50.24;102526.28;7391718;19;19999;-59
2022/09/22 07:46:03;;;;;;;14.52;7.50;;;;;;;11.74;50.23;102525.22;7390729;19;20355;-58
2022/09/22 07:48:34;;;;;;;12.80;7.25;;;;;;;11.77;49.92;102521.88;7388715;19;20023;-58
2022/09/22 07:51:00;;;;;;;15.57;7.22;;;;;;;11.81;50.03;102518.22;7389970;19;20002;-59
2022/09/22 07:53:26;;;;;;;15.35;7.00;;;;;;;11.91;49.89;102528.16;7391709;19;20006;-59
2022/09/22 07:55:51;;;;;;;11.68;6.07;;;;;;;12.00;49.68;102526.28;7391620;19;20078;-59
2022/09/22 07:58:17;;;;;;;11.68;5.22;;;;;;;12.10;49.25;102524.47;7388960;19;20022;-59
2022/09/22 08:00:42;;;;;;;13.63;4.40;;;;;;;12.16;48.57;102518.56;7389401;19;19999;-59
2022/09/22 08:03:08;;;;;;;11.45;4.10;;;;;;;12.20;48.54;102527.75;7390426;19;20002;-59
2022/09/22 08:05:33;;;;;;;14.63;4.15;;;;;;;12.29;47.86;102525.09;7391114;19;20016;-59
2022/09/22 08:08:01;;;;;;;14.30;3.80;;;;;;;12.36;47.62;102530.13;7388949;19;20006;-59
2022/09/22 08:10:34;;;;;;;9.02;4.10;;;;;;;12.44;47.46;102528.56;7390740;19;20012;-59
2022/09/22 08:13:00;;;;;;;10.57;3.90;;;;;;;12.50;47.24;102521.84;7388614;19;20482;-59
2022/09/22 08:15:26;;;;;;;10.02;3.47;;;;;;;12.58;46.53;102523.84;7391202;19;20003;-59
2022/09/22 08:17:56;;;;;;;7.80;3.25;;;;;;;12.59;46.48;102537.22;7389692;19;19999;-59
2022/09/22 08:20:21;;;;;;;10.40;2.85;;;;;;;12.70;45.91;102534.22;7387619;19;20093;-59
2022/09/22 08:22:52;;;;;;;10.73;3.22;;;;;;;12.81;45.75;102532.00;7391157;19;20003;-59
2022/09/22 08:25:18;;;;;;;9.23;3.10;;;;;;;12.89;45.63;102528.53;7390989;19;20070;-59
2022/09/22 08:27:43;;;;;;;12.95;3.25;;;;;;;12.98;45.06;102531.31;7389016;19;20010;-59
2022/09/22 08:30:10;;;;;;;11.30;3.05;;;;;;;13.06;44.74;102522.31;7390299;19;19995;-59
2022/09/22 08:32:37;;;;;;;10.75;2.55;;;;;;;13.10;44.51;102528.78;7391159;19;20006;-59
2022/09/22 08:35:04;;;;;;;9.15;2.45;;;;;;;13.21;44.36;102523.81;7390552;19;19995;-59
2022/09/22 08:37:31;;;;;;;13.23;3.00;;;;;;;13.27;44.46;102528.03;7395313;19;19999;-59
2022/09/22 08:39:57;;;;;;;8.02;2.38;;;;;;;13.35;44.13;102527.25;7395605;19;20006;-60
2022/09/22 08:42:27;;;;;;;6.60;2.25;;;;;;;13.34;44.08;102525.63;7397649;19;20018;-59
2022/09/22 08:45:00;;;;;;;6.38;2.25;;;;;;;13.40;43.86;102529.84;7395140;19;20002;-60
2022/09/22 08:53:22;;;;;;;5.18;1.75;;;;;;;13.45;43.84;102534.38;7396903;19;20473;-59
2022/09/22 08:56:19;;;;;;;5.03;1.60;;;;;;;13.53;42.60;102530.84;7396025;19;19998;-59
2022/09/22 08:59:08;;;;;;;8.07;1.67;;;;;;;13.61;43.02;102535.56;7391341;19;20053;-59
2022/09/22 09:02:18;;;;;;;5.57;2.30;;;;;;;13.68;42.71;102532.34;7396764;19;20035;-59
2022/09/22 09:05:27;;;;;;;5.55;1.58;;;;;;;13.73;42.27;102534.94;7393208;19;19999;-59
2022/09/22 09:08:33;;;;;;;6.40;1.40;;;;;;;13.74;42.49;102531.03;7389702;19;20002;-60
2022/09/22 09:11:05;;;;;;;6.32;1.67;;;;;;;13.76;42.38;102533.47;7395696;19;20034;-60
2022/09/22 09:13:35;;;;;;;4.93;1.70;;;;;;;13.83;42.48;102525.59;7396488;19;20282;-63
2022/09/22 09:16:06;;;;;;;9.02;1.92;;;;;;;13.88;42.32;102525.44;7394489;19;20009;-61
2022/09/22 09:18:35;;;;;;;11.00;1.63;;;;;;;13.93;42.47;102525.28;7394083;19;20006;-61
2022/09/22 09:21:05;;;;;;;10.27;1.98;;;;;;;13.93;42.43;102518.97;7394781;19;20025;-59
2022/09/22 09:23:38;;;;;;;7.15;2.08;;;;;;;13.97;42.42;102517.22;7396082;19;20462;-60
2022/09/22 09:26:04;;;;;;;7.65;1.90;;;;;;;14.02;42.75;102520.59;7395246;19;20396;-60
2022/09/22 09:28:41;;;;;;;5.85;1.63;;;;;;;14.07;42.77;102514.13;7393041;19;20026;-60
2022/09/22 09:31:17;;;;;;;5.32;1.65;;;;;;;14.15;42.67;102512.53;7395429;19;19999;-59
2022/09/22 09:34:00;;;;;;;8.07;1.80;;;;;;;14.15;42.03;102512.53;7394445;19;20006;-59
2022/09/22 09:36:32;;;;;;;10.25;2.47;;;;;;;14.21;42.24;102508.47;7395846;19;20011;-59
2022/09/22 09:39:01;;;;;;;6.13;1.70;;;;;;;14.24;42.42;102510.56;7394904;19;20002;-60
2022/09/22 09:41:30;;;;;;;7.40;1.50;;;;;;;14.32;42.42;102514.44;7395790;19;20003;-60
2022/09/22 09:43:56;;;;;;;11.43;1.60;;;;;;;14.37;41.88;102501.34;7393569;19;20087;-60
2022/09/22 09:46:43;;;;;;;6.85;1.33;;;;;;;14.39;42.10;102496.31;7391605;19;20010;-60
2022/09/22 09:49:14;;;;;;;9.82;1.60;;;;;;;14.52;41.53;102499.22;7395032;19;20007;-60
2022/09/22 09:51:47;;;;;;;3.60;1.20;;;;;;;14.57;41.31;102493.53;7394908;19;20006;-59
2022/09/22 09:54:15;;;;;;;6.75;1.50;;;;;;;14.59;41.16;102489.31;7396121;19;20066;-60
2022/09/22 09:57:20;;;;;;;4.13;1.60;;;;;;;14.57;40.72;102486.09;7394299;19;20431;-60
2022/09/22 10:02:37;;;;;;;10.57;1.67;;;;;;;14.78;40.34;102483.47;7391090;19;20010;-60
2022/09/22 10:05:09;;;;;;;4.82;1.20;;;;;;;14.77;40.26;102487.34;7394273;19;19998;-59
2022/09/22 10:07:45;;;;;;;10.98;1.95;;;;;;;14.78;40.52;102477.97;7392793;19;20002;-60
2022/09/22 10:10:37;;;;;;;8.73;2.20;;;;;;;14.83;40.65;102482.50;7394604;19;20002;-60
2022/09/22 10:13:03;;;;;;;8.88;1.38;;;;;;;14.78;40.48;102475.22;7394324;19;20002;-60
2022/09/22 10:15:30;;;;;;;7.32;1.27;;;;;;;14.90;40.06;102470.97;7394645;19;20490;-60
2022/09/22 10:17:55;;;;;;;8.50;1.42;;;;;;;14.97;39.97;102466.56;7390616;19;19998;-59
2022/09/22 10:20:25;;;;;;;3.20;1.05;;;;;;;15.01;39.60;102466.69;7392457;19;20009;-59
2022/09/22 10:22:52;;;;;;;5.63;1.33;;;;;;;15.00;39.32;102470.59;7395148;19;20010;-59
2022/09/22 10:25:18;;;;;;;4.75;1.23;;;;;;;15.11;39.08;102465.53;7391631;19;20454;-59
2022/09/22 10:28:12;;;;;;;4.97;1.30;;;;;;;15.07;38.18;102459.88;7391730;19;20017;-59
2022/09/22 10:30:38;;;;;;;8.60;1.15;;;;;;;15.20;38.71;102462.72;7393373;19;20003;-60
2022/09/22 10:33:19;;;;;;;10.95;3.60;;;;;;;15.26;38.63;102458.63;7394047;19;20006;-60
2022/09/22 10:36:07;;;;;;;8.57;1.98;;;;;;;15.28;38.63;102448.09;7391311;19;20006;-59
2022/09/22 10:38:36;;;;;;;5.68;1.25;;;;;;;15.31;38.66;102452.94;7391444;19;20003;-60
2022/09/22 10:41:06;;;;;;;4.85;1.27;;;;;;;15.36;38.50;102450.81;7392017;19;20011;-59
2022/09/22 10:43:45;;;;;;;6.82;1.30;;;;;;;15.40;38.38;102450.13;7393309;19;20530;-59
2022/09/22 10:46:48;;;;;;;6.57;1.23;;;;;;;15.44;38.05;102446.38;7392609;19;20042;-59
2022/09/22 10:49:27;;;;;;;5.50;1.83;;;;;;;15.48;38.10;102449.25;7393261;19;20007;-59
2022/09/22 10:52:12;;;;;;;6.70;1.42;;;;;;;15.63;37.77;102436.88;7393407;19;20496;-59
2022/09/22 10:55:01;;;;;;;6.60;1.27;;;;;;;15.54;37.71;102443.22;7393284;19;20029;-59
2022/09/22 10:58:00;;;;;;;3.90;1.27;;;;;;;15.38;38.10;102442.22;7389620;19;20021;-59
2022/09/22 11:00:27;;;;;;;4.05;1.17;;;;;;;15.48;37.91;102444.59;7392012;19;20006;-58
2022/09/22 11:03:20;;;;;;;4.05;1.00;;;;;;;15.34;38.23;102441.28;7390442;19;20016;-59
2022/09/22 11:14:51;;;;;;;7.00;1.40;;;;;;;15.47;37.48;102444.91;7392432;19;20015;-59
2022/09/22 11:17:31;;;;;;;6.15;1.40;;;;;;;15.46;37.63;102440.53;7389839;19;20006;-59
2022/09/22 11:20:18;;;;;;;7.32;1.40;;;;;;;15.43;37.65;102444.78;7391338;19;20113;-59
2022/09/22 11:23:21;;;;;;;6.03;1.23;;;;;;;15.54;37.00;102442.41;7390023;19;20010;-59
2022/09/22 11:26:05;;;;;;;8.48;1.10;;;;;;;15.66;36.76;102437.00;7391738;19;20006;-59
2022/09/22 11:29:06;;;;;;;7.75;1.40;;;;;;;15.68;36.16;102434.75;7389280;19;20014;-57
2022/09/22 11:31:46;;;;;;;8.75;1.20;;;;;;;15.77;36.69;102437.41;7391848;19;20486;-57
2022/09/22 11:34:39;;;;;;;4.72;1.00;;;;;;;15.87;36.90;102433.44;7391985;19;19999;-56
2022/09/22 11:37:26;;;;;;;7.03;1.40;;;;;;;16.16;35.83;102435.22;7390022;19;20022;-59
2022/09/22 11:40:03;;;;;;;6.25;1.40;;;;;;;16.38;35.94;102423.00;7389891;19;20116;-57
2022/09/22 11:42:54;;;;;;;7.97;2.50;;;;;;;16.29;35.40;102431.38;7391826;19;20025;-58
2022/09/22 11:45:26;;;;;;;5.88;1.25;;;;;;;16.19;35.39;102418.03;7390570;19;20017;-57
2022/09/22 11:48:13;;;;;;;3.67;0.90;;;;;;;16.43;35.20;102413.72;7389582;19;20007;-57
2022/09/22 11:50:48;;;;;;;3.70;1.05;;;;;;;16.57;35.89;102400.44;7390556;19;20482;-58
2022/09/22 11:53:32;;;;;;;4.95;1.20;;;;;;;16.58;35.26;102404.00;7390795;19;20027;-57
2022/09/22 11:56:23;;;;;;;5.32;0.90;;;;;;;16.65;34.34;102398.69;7389441;19;20003;-58
2022/09/22 11:58:54;;;;;;;4.55;1.30;;;;;;;16.63;34.93;102390.81;7386234;19;20025;-58
2022/09/22 12:01:28;;;;;;;5.60;1.42;;;;;;;16.46;35.19;102390.97;7390404;19;19999;-58